sensor_id;sensor_type;location;lat;lon;timestamp;temperature;humidity
55771;DHT22;41687;-33.234;-60.334;2022-09-09T00:07:23;12.00;66.80
55771;DHT22;41687;-33.234;-60.334;2022-09-09T00:09:58;12.00;67.40
55771;DHT22;41687;-33.234;-60.334;2022-09-09T00:12:54;11.90;67.00
55771;DHT22;41687;-33.234;-60.334;2022-09-09T00:18:52;12.00;67.10
55771;DHT22;41687;-33.234;-60.334;2022-09-09T00:22:17;12.00;67.30
55771;DHT22;41687;-33.234;-60.334;2022-09-09T00:24:54;12.00;66.80
55771;DHT22;41687;-33.234;-60.334;2022-09-09T00:30:17;11.90;66.90
55771;DHT22;41687;-33.234;-60.334;2022-09-09T00:32:55;12.00;66.80
55771;DHT22;41687;-33.234;-60.334;2022-09-09T00:38:28;11.90;66.60
55771;DHT22;41687;-33.234;-60.334;2022-09-09T00:44:21;11.90;67.90
55771;DHT22;41687;-33.234;-60.334;2022-09-09T00:50:53;11.80;67.10
55771;DHT22;41687;-33.234;-60.334;2022-09-09T00:56:22;11.90;66.20
55771;DHT22;41687;-33.234;-60.334;2022-09-09T01:01:27;11.80;66.40
55771;DHT22;41687;-33.234;-60.334;2022-09-09T01:03:56;11.70;65.70
55771;DHT22;41687;-33.234;-60.334;2022-09-09T01:09:52;11.80;66.50
55771;DHT22;41687;-33.234;-60.334;2022-09-09T01:15:16;11.70;67.20
55771;DHT22;41687;-33.234;-60.334;2022-09-09T01:20:20;11.70;66.90
55771;DHT22;41687;-33.234;-60.334;2022-09-09T01:26:42;11.60;68.20
55771;DHT22;41687;-33.234;-60.334;2022-09-09T01:29:21;11.60;67.20
55771;DHT22;41687;-33.234;-60.334;2022-09-09T01:34:32;11.60;67.70
55771;DHT22;41687;-33.234;-60.334;2022-09-09T01:37:07;11.60;67.90
55771;DHT22;41687;-33.234;-60.334;2022-09-09T01:39:40;11.60;67.30
55771;DHT22;41687;-33.234;-60.334;2022-09-09T01:42:13;11.70;66.20
55771;DHT22;41687;-33.234;-60.334;2022-09-09T01:44:42;11.70;66.90
55771;DHT22;41687;-33.234;-60.334;2022-09-09T01:47:10;11.70;66.10
55771;DHT22;41687;-33.234;-60.334;2022-09-09T01:49:56;11.80;66.10
55771;DHT22;41687;-33.234;-60.334;2022-09-09T02:02:18;11.70;67.10
55771;DHT22;41687;-33.234;-60.334;2022-09-09T02:08:15;11.70;66.40
55771;DHT22;41687;-33.234;-60.334;2022-09-09T02:11:06;11.70;67.20
55771;DHT22;41687;-33.234;-60.334;2022-09-09T02:13:45;11.70;66.60
55771;DHT22;41687;-33.234;-60.334;2022-09-09T02:16:18;11.80;66.00
55771;DHT22;41687;-33.234;-60.334;2022-09-09T02:18:54;11.80;66.20
55771;DHT22;41687;-33.234;-60.334;2022-09-09T02:21:33;11.90;65.70
55771;DHT22;41687;-33.234;-60.334;2022-09-09T02:24:06;11.80;66.10
55771;DHT22;41687;-33.234;-60.334;2022-09-09T02:26:44;11.80;66.10
55771;DHT22;41687;-33.234;-60.334;2022-09-09T02:29:39;11.80;66.30
55771;DHT22;41687;-33.234;-60.334;2022-09-09T02:32:28;11.80;67.40
55771;DHT22;41687;-33.234;-60.334;2022-09-09T02:35:12;11.70;67.60
55771;DHT22;41687;-33.234;-60.334;2022-09-09T02:37:44;11.60;67.30
55771;DHT22;41687;-33.234;-60.334;2022-09-09T02:40:16;11.70;66.20
55771;DHT22;41687;-33.234;-60.334;2022-09-09T02:42:49;11.60;67.00
55771;DHT22;41687;-33.234;-60.334;2022-09-09T02:45:25;11.70;66.50
55771;DHT22;41687;-33.234;-60.334;2022-09-09T02:48:04;11.70;66.60
55771;DHT22;41687;-33.234;-60.334;2022-09-09T02:50:50;11.70;67.10
55771;DHT22;41687;-33.234;-60.334;2022-09-09T02:54:01;11.70;67.10
55771;DHT22;41687;-33.234;-60.334;2022-09-09T02:56:33;11.60;67.40
55771;DHT22;41687;-33.234;-60.334;2022-09-09T02:59:05;11.50;67.10
55771;DHT22;41687;-33.234;-60.334;2022-09-09T03:01:35;11.40;67.30
55771;DHT22;41687;-33.234;-60.334;2022-09-09T03:04:03;11.60;66.60
55771;DHT22;41687;-33.234;-60.334;2022-09-09T03:06:32;11.60;66.70
55771;DHT22;41687;-33.234;-60.334;2022-09-09T03:09:10;11.60;66.30
55771;DHT22;41687;-33.234;-60.334;2022-09-09T03:11:38;11.60;66.20
55771;DHT22;41687;-33.234;-60.334;2022-09-09T03:14:07;11.60;66.60
55771;DHT22;41687;-33.234;-60.334;2022-09-09T03:16:36;11.50;66.60
55771;DHT22;41687;-33.234;-60.334;2022-09-09T03:19:04;11.50;66.70
55771;DHT22;41687;-33.234;-60.334;2022-09-09T03:21:33;11.30;67.10
55771;DHT22;41687;-33.234;-60.334;2022-09-09T03:24:01;11.50;66.30
55771;DHT22;41687;-33.234;-60.334;2022-09-09T03:26:30;11.60;66.20
55771;DHT22;41687;-33.234;-60.334;2022-09-09T03:28:58;11.50;66.70
55771;DHT22;41687;-33.234;-60.334;2022-09-09T03:31:29;11.30;67.20
55771;DHT22;41687;-33.234;-60.334;2022-09-09T03:34:01;11.30;67.30
55771;DHT22;41687;-33.234;-60.334;2022-09-09T03:36:33;11.40;66.90
55771;DHT22;41687;-33.234;-60.334;2022-09-09T03:39:02;11.30;67.30
55771;DHT22;41687;-33.234;-60.334;2022-09-09T03:41:31;11.30;67.10
55771;DHT22;41687;-33.234;-60.334;2022-09-09T03:44:01;11.30;67.50
55771;DHT22;41687;-33.234;-60.334;2022-09-09T03:46:34;11.30;67.30
55771;DHT22;41687;-33.234;-60.334;2022-09-09T03:49:02;11.40;67.00
55771;DHT22;41687;-33.234;-60.334;2022-09-09T03:51:32;11.40;67.20
55771;DHT22;41687;-33.234;-60.334;2022-09-09T03:54:05;11.40;66.80
55771;DHT22;41687;-33.234;-60.334;2022-09-09T03:56:35;11.40;67.30
55771;DHT22;41687;-33.234;-60.334;2022-09-09T03:59:04;11.40;66.70
55771;DHT22;41687;-33.234;-60.334;2022-09-09T04:01:33;11.30;67.20
55771;DHT22;41687;-33.234;-60.334;2022-09-09T04:04:02;11.40;66.70
55771;DHT22;41687;-33.234;-60.334;2022-09-09T04:06:30;11.50;66.70
55771;DHT22;41687;-33.234;-60.334;2022-09-09T04:08:58;11.40;66.70
55771;DHT22;41687;-33.234;-60.334;2022-09-09T04:11:27;11.30;67.00
55771;DHT22;41687;-33.234;-60.334;2022-09-09T04:13:57;11.20;67.50
55771;DHT22;41687;-33.234;-60.334;2022-09-09T04:16:25;11.10;66.90
55771;DHT22;41687;-33.234;-60.334;2022-09-09T04:18:53;11.10;67.20
55771;DHT22;41687;-33.234;-60.334;2022-09-09T04:21:23;11.00;67.20
55771;DHT22;41687;-33.234;-60.334;2022-09-09T04:23:51;10.90;67.40
55771;DHT22;41687;-33.234;-60.334;2022-09-09T04:26:19;11.00;67.40
55771;DHT22;41687;-33.234;-60.334;2022-09-09T04:28:47;11.10;67.00
55771;DHT22;41687;-33.234;-60.334;2022-09-09T04:31:19;11.10;66.60
55771;DHT22;41687;-33.234;-60.334;2022-09-09T04:33:50;11.10;66.70
55771;DHT22;41687;-33.234;-60.334;2022-09-09T04:36:20;11.00;66.80
55771;DHT22;41687;-33.234;-60.334;2022-09-09T04:38:49;11.00;66.80
55771;DHT22;41687;-33.234;-60.334;2022-09-09T04:41:18;11.00;66.80
55771;DHT22;41687;-33.234;-60.334;2022-09-09T04:43:50;10.90;67.10
55771;DHT22;41687;-33.234;-60.334;2022-09-09T04:46:24;10.80;67.10
55771;DHT22;41687;-33.234;-60.334;2022-09-09T04:48:52;10.80;67.40
55771;DHT22;41687;-33.234;-60.334;2022-09-09T04:51:22;10.90;66.70
55771;DHT22;41687;-33.234;-60.334;2022-09-09T04:53:52;10.80;67.20
55771;DHT22;41687;-33.234;-60.334;2022-09-09T04:56:21;10.80;67.20
55771;DHT22;41687;-33.234;-60.334;2022-09-09T04:58:58;10.80;66.60
55771;DHT22;41687;-33.234;-60.334;2022-09-09T05:01:36;10.80;67.10
55771;DHT22;41687;-33.234;-60.334;2022-09-09T05:04:05;10.80;66.70
55771;DHT22;41687;-33.234;-60.334;2022-09-09T05:06:35;10.80;66.60
55771;DHT22;41687;-33.234;-60.334;2022-09-09T05:09:06;10.90;66.40
55771;DHT22;41687;-33.234;-60.334;2022-09-09T05:11:35;10.80;66.90
55771;DHT22;41687;-33.234;-60.334;2022-09-09T05:14:12;10.70;67.10
55771;DHT22;41687;-33.234;-60.334;2022-09-09T05:16:40;10.70;67.10
55771;DHT22;41687;-33.234;-60.334;2022-09-09T05:19:09;10.80;66.30
55771;DHT22;41687;-33.234;-60.334;2022-09-09T05:21:44;10.70;66.60
55771;DHT22;41687;-33.234;-60.334;2022-09-09T05:24:15;10.50;67.10
55771;DHT22;41687;-33.234;-60.334;2022-09-09T05:26:45;10.50;66.80
55771;DHT22;41687;-33.234;-60.334;2022-09-09T05:29:13;10.50;66.60
55771;DHT22;41687;-33.234;-60.334;2022-09-09T05:31:41;10.40;67.30
55771;DHT22;41687;-33.234;-60.334;2022-09-09T05:34:12;10.40;66.70
55771;DHT22;41687;-33.234;-60.334;2022-09-09T05:36:40;10.40;66.60
55771;DHT22;41687;-33.234;-60.334;2022-09-09T05:39:08;10.40;66.50
55771;DHT22;41687;-33.234;-60.334;2022-09-09T05:41:36;10.30;66.60
55771;DHT22;41687;-33.234;-60.334;2022-09-09T05:44:04;10.40;66.40
55771;DHT22;41687;-33.234;-60.334;2022-09-09T05:46:38;10.40;66.50
55771;DHT22;41687;-33.234;-60.334;2022-09-09T05:49:06;10.30;66.70
55771;DHT22;41687;-33.234;-60.334;2022-09-09T05:51:35;10.30;66.70
55771;DHT22;41687;-33.234;-60.334;2022-09-09T05:54:08;10.40;66.40
55771;DHT22;41687;-33.234;-60.334;2022-09-09T05:56:42;10.40;66.60
55771;DHT22;41687;-33.234;-60.334;2022-09-09T05:59:10;10.50;66.30
55771;DHT22;41687;-33.234;-60.334;2022-09-09T06:01:39;10.50;66.30
55771;DHT22;41687;-33.234;-60.334;2022-09-09T06:04:09;10.40;66.50
55771;DHT22;41687;-33.234;-60.334;2022-09-09T06:06:39;10.40;66.90
55771;DHT22;41687;-33.234;-60.334;2022-09-09T06:09:16;10.30;66.60
55771;DHT22;41687;-33.234;-60.334;2022-09-09T06:11:43;10.20;66.60
55771;DHT22;41687;-33.234;-60.334;2022-09-09T06:14:12;10.20;67.00
55771;DHT22;41687;-33.234;-60.334;2022-09-09T06:16:41;10.20;66.40
55771;DHT22;41687;-33.234;-60.334;2022-09-09T06:19:18;10.20;66.70
55771;DHT22;41687;-33.234;-60.334;2022-09-09T06:21:48;10.20;66.50
55771;DHT22;41687;-33.234;-60.334;2022-09-09T06:24:17;10.20;66.10
55771;DHT22;41687;-33.234;-60.334;2022-09-09T06:26:49;10.10;66.30
55771;DHT22;41687;-33.234;-60.334;2022-09-09T06:29:23;10.20;65.90
55771;DHT22;41687;-33.234;-60.334;2022-09-09T06:31:53;10.20;66.00
55771;DHT22;41687;-33.234;-60.334;2022-09-09T06:34:22;10.10;66.10
55771;DHT22;41687;-33.234;-60.334;2022-09-09T06:36:54;10.10;66.20
55771;DHT22;41687;-33.234;-60.334;2022-09-09T06:39:25;10.10;66.20
55771;DHT22;41687;-33.234;-60.334;2022-09-09T06:41:52;10.10;65.80
55771;DHT22;41687;-33.234;-60.334;2022-09-09T06:44:38;10.10;66.00
55771;DHT22;41687;-33.234;-60.334;2022-09-09T06:47:10;10.10;65.80
55771;DHT22;41687;-33.234;-60.334;2022-09-09T06:49:40;9.90;66.40
55771;DHT22;41687;-33.234;-60.334;2022-09-09T06:52:10;9.90;66.40
55771;DHT22;41687;-33.234;-60.334;2022-09-09T06:54:39;9.90;66.50
55771;DHT22;41687;-33.234;-60.334;2022-09-09T06:57:07;9.90;66.10
55771;DHT22;41687;-33.234;-60.334;2022-09-09T06:59:35;9.90;65.90
55771;DHT22;41687;-33.234;-60.334;2022-09-09T07:02:03;9.90;65.80
55771;DHT22;41687;-33.234;-60.334;2022-09-09T07:04:31;9.80;65.60
55771;DHT22;41687;-33.234;-60.334;2022-09-09T07:07:00;9.90;65.30
55771;DHT22;41687;-33.234;-60.334;2022-09-09T07:09:28;9.80;65.90
55771;DHT22;41687;-33.234;-60.334;2022-09-09T07:11:58;9.70;65.80
55771;DHT22;41687;-33.234;-60.334;2022-09-09T07:14:30;9.60;66.00
55771;DHT22;41687;-33.234;-60.334;2022-09-09T07:17:03;9.60;66.20
55771;DHT22;41687;-33.234;-60.334;2022-09-09T07:19:36;9.40;66.40
55771;DHT22;41687;-33.234;-60.334;2022-09-09T07:22:05;9.50;66.20
55771;DHT22;41687;-33.234;-60.334;2022-09-09T07:24:34;9.60;66.00
55771;DHT22;41687;-33.234;-60.334;2022-09-09T07:27:03;9.70;66.10
55771;DHT22;41687;-33.234;-60.334;2022-09-09T07:29:30;9.40;66.60
55771;DHT22;41687;-33.234;-60.334;2022-09-09T07:31:59;9.30;66.50
55771;DHT22;41687;-33.234;-60.334;2022-09-09T07:34:32;9.30;66.70
55771;DHT22;41687;-33.234;-60.334;2022-09-09T07:37:02;9.30;66.70
55771;DHT22;41687;-33.234;-60.334;2022-09-09T07:39:32;9.10;67.20
55771;DHT22;41687;-33.234;-60.334;2022-09-09T07:42:00;9.20;66.70
55771;DHT22;41687;-33.234;-60.334;2022-09-09T07:44:31;9.20;66.60
55771;DHT22;41687;-33.234;-60.334;2022-09-09T07:47:06;9.10;66.60
55771;DHT22;41687;-33.234;-60.334;2022-09-09T07:49:39;9.10;66.90
55771;DHT22;41687;-33.234;-60.334;2022-09-09T07:52:08;9.10;66.30
55771;DHT22;41687;-33.234;-60.334;2022-09-09T07:54:41;9.00;66.70
55771;DHT22;41687;-33.234;-60.334;2022-09-09T07:57:10;9.10;66.40
55771;DHT22;41687;-33.234;-60.334;2022-09-09T07:59:40;9.10;66.60
55771;DHT22;41687;-33.234;-60.334;2022-09-09T08:02:09;9.00;66.90
55771;DHT22;41687;-33.234;-60.334;2022-09-09T08:04:38;8.90;67.00
55771;DHT22;41687;-33.234;-60.334;2022-09-09T08:07:06;8.90;67.00
55771;DHT22;41687;-33.234;-60.334;2022-09-09T08:09:42;8.80;67.20
55771;DHT22;41687;-33.234;-60.334;2022-09-09T08:12:22;8.80;67.00
55771;DHT22;41687;-33.234;-60.334;2022-09-09T08:14:51;8.70;67.10
55771;DHT22;41687;-33.234;-60.334;2022-09-09T08:17:18;8.80;66.80
55771;DHT22;41687;-33.234;-60.334;2022-09-09T08:19:47;8.70;67.10
55771;DHT22;41687;-33.234;-60.334;2022-09-09T08:22:20;8.70;66.70
55771;DHT22;41687;-33.234;-60.334;2022-09-09T08:24:50;8.70;66.50
55771;DHT22;41687;-33.234;-60.334;2022-09-09T08:27:18;8.70;66.20
55771;DHT22;41687;-33.234;-60.334;2022-09-09T08:29:46;8.50;66.50
55771;DHT22;41687;-33.234;-60.334;2022-09-09T08:32:14;8.50;66.10
55771;DHT22;41687;-33.234;-60.334;2022-09-09T08:34:45;8.60;66.20
55771;DHT22;41687;-33.234;-60.334;2022-09-09T08:37:16;8.60;65.90
55771;DHT22;41687;-33.234;-60.334;2022-09-09T08:39:45;8.50;66.10
55771;DHT22;41687;-33.234;-60.334;2022-09-09T08:45:10;8.50;66.20
55771;DHT22;41687;-33.234;-60.334;2022-09-09T08:48:08;8.50;65.60
55771;DHT22;41687;-33.234;-60.334;2022-09-09T08:50:38;8.40;66.40
55771;DHT22;41687;-33.234;-60.334;2022-09-09T08:53:28;8.40;66.10
55771;DHT22;41687;-33.234;-60.334;2022-09-09T08:56:04;8.40;66.20
55771;DHT22;41687;-33.234;-60.334;2022-09-09T08:58:50;8.30;66.40
55771;DHT22;41687;-33.234;-60.334;2022-09-09T09:10:02;8.10;67.00
55771;DHT22;41687;-33.234;-60.334;2022-09-09T09:12:45;8.10;67.00
55771;DHT22;41687;-33.234;-60.334;2022-09-09T09:15:35;8.00;67.00
55771;DHT22;41687;-33.234;-60.334;2022-09-09T09:18:05;8.10;66.90
55771;DHT22;41687;-33.234;-60.334;2022-09-09T09:20:58;8.00;66.50
55771;DHT22;41687;-33.234;-60.334;2022-09-09T09:23:42;8.20;66.50
55771;DHT22;41687;-33.234;-60.334;2022-09-09T09:26:13;8.10;66.80
55771;DHT22;41687;-33.234;-60.334;2022-09-09T09:28:43;8.10;66.70
55771;DHT22;41687;-33.234;-60.334;2022-09-09T09:31:15;8.20;66.60
55771;DHT22;41687;-33.234;-60.334;2022-09-09T09:33:50;8.20;66.60
55771;DHT22;41687;-33.234;-60.334;2022-09-09T09:36:35;8.30;66.50
55771;DHT22;41687;-33.234;-60.334;2022-09-09T09:39:05;8.20;66.60
55771;DHT22;41687;-33.234;-60.334;2022-09-09T09:41:41;8.10;66.60
55771;DHT22;41687;-33.234;-60.334;2022-09-09T09:44:28;8.10;66.70
55771;DHT22;41687;-33.234;-60.334;2022-09-09T09:47:18;8.00;67.10
55771;DHT22;41687;-33.234;-60.334;2022-09-09T09:49:59;8.10;66.80
55771;DHT22;41687;-33.234;-60.334;2022-09-09T09:52:33;8.10;66.60
55771;DHT22;41687;-33.234;-60.334;2022-09-09T09:55:05;8.00;66.70
55771;DHT22;41687;-33.234;-60.334;2022-09-09T09:57:41;8.00;66.70
55771;DHT22;41687;-33.234;-60.334;2022-09-09T10:00:21;8.00;66.80
55771;DHT22;41687;-33.234;-60.334;2022-09-09T10:03:35;8.00;66.80
55771;DHT22;41687;-33.234;-60.334;2022-09-09T10:06:07;7.80;67.20
55771;DHT22;41687;-33.234;-60.334;2022-09-09T10:08:45;7.80;66.90
55771;DHT22;41687;-33.234;-60.334;2022-09-09T10:14:26;7.70;67.00
55771;DHT22;41687;-33.234;-60.334;2022-09-09T10:22:51;7.70;66.90
55771;DHT22;41687;-33.234;-60.334;2022-09-09T10:34:47;7.80;66.50
55771;DHT22;41687;-33.234;-60.334;2022-09-09T10:37:50;7.80;66.10
55771;DHT22;41687;-33.234;-60.334;2022-09-09T10:41:00;7.80;66.50
55771;DHT22;41687;-33.234;-60.334;2022-09-09T10:54:12;8.20;65.30
55771;DHT22;41687;-33.234;-60.334;2022-09-09T10:56:44;8.40;65.10
55771;DHT22;41687;-33.234;-60.334;2022-09-09T10:59:24;9.90;63.20
55771;DHT22;41687;-33.234;-60.334;2022-09-09T11:02:03;12.10;58.70
55771;DHT22;41687;-33.234;-60.334;2022-09-09T11:07:12;15.70;51.90
55771;DHT22;41687;-33.234;-60.334;2022-09-09T11:09:49;16.50;49.40
55771;DHT22;41687;-33.234;-60.334;2022-09-09T11:12:24;16.40;47.90
55771;DHT22;41687;-33.234;-60.334;2022-09-09T11:15:16;16.10;49.60
55771;DHT22;41687;-33.234;-60.334;2022-09-09T11:17:55;16.20;47.10
55771;DHT22;41687;-33.234;-60.334;2022-09-09T11:20:26;16.50;47.80
55771;DHT22;41687;-33.234;-60.334;2022-09-09T11:23:05;16.90;48.20
55771;DHT22;41687;-33.234;-60.334;2022-09-09T11:25:51;16.90;46.50
55771;DHT22;41687;-33.234;-60.334;2022-09-09T11:42:23;16.10;49.10
55771;DHT22;41687;-33.234;-60.334;2022-09-09T11:44:52;16.00;48.20
55771;DHT22;41687;-33.234;-60.334;2022-09-09T11:47:30;15.80;48.30
55771;DHT22;41687;-33.234;-60.334;2022-09-09T11:52:49;15.50;47.50
55771;DHT22;41687;-33.234;-60.334;2022-09-09T11:55:27;15.60;49.90
55771;DHT22;41687;-33.234;-60.334;2022-09-09T12:00:42;15.40;47.10
55771;DHT22;41687;-33.234;-60.334;2022-09-09T12:03:41;15.10;49.40
55771;DHT22;41687;-33.234;-60.334;2022-09-09T12:06:17;15.20;48.10
55771;DHT22;41687;-33.234;-60.334;2022-09-09T12:08:52;15.30;49.70
55771;DHT22;41687;-33.234;-60.334;2022-09-09T12:11:29;15.50;49.30
55771;DHT22;41687;-33.234;-60.334;2022-09-09T12:14:00;15.50;48.10
55771;DHT22;41687;-33.234;-60.334;2022-09-09T12:16:33;15.80;47.60
55771;DHT22;41687;-33.234;-60.334;2022-09-09T12:19:19;15.60;48.80
55771;DHT22;41687;-33.234;-60.334;2022-09-09T12:22:05;15.80;46.70
55771;DHT22;41687;-33.234;-60.334;2022-09-09T12:27:54;15.50;49.00
55771;DHT22;41687;-33.234;-60.334;2022-09-09T12:30:15;15.70;48.10
55771;DHT22;41687;-33.234;-60.334;2022-09-09T12:32:44;15.30;48.60
55771;DHT22;41687;-33.234;-60.334;2022-09-09T12:35:20;15.30;48.70
55771;DHT22;41687;-33.234;-60.334;2022-09-09T12:37:50;15.30;50.00
55771;DHT22;41687;-33.234;-60.334;2022-09-09T12:40:24;15.30;49.50
55771;DHT22;41687;-33.234;-60.334;2022-09-09T12:42:52;15.60;49.00
55771;DHT22;41687;-33.234;-60.334;2022-09-09T12:45:24;15.60;49.20
55771;DHT22;41687;-33.234;-60.334;2022-09-09T12:48:08;15.80;48.50
55771;DHT22;41687;-33.234;-60.334;2022-09-09T12:50:53;15.90;48.10
55771;DHT22;41687;-33.234;-60.334;2022-09-09T12:53:36;15.40;48.10
55771;DHT22;41687;-33.234;-60.334;2022-09-09T12:56:06;15.70;48.30
55771;DHT22;41687;-33.234;-60.334;2022-09-09T12:58:37;15.70;47.40
55771;DHT22;41687;-33.234;-60.334;2022-09-09T13:01:06;15.60;48.60
55771;DHT22;41687;-33.234;-60.334;2022-09-09T13:03:45;15.80;48.30
55771;DHT22;41687;-33.234;-60.334;2022-09-09T13:06:20;16.00;47.20
55771;DHT22;41687;-33.234;-60.334;2022-09-09T13:08:54;16.10;46.40
55771;DHT22;41687;-33.234;-60.334;2022-09-09T13:11:42;16.30;46.90
55771;DHT22;41687;-33.234;-60.334;2022-09-09T13:14:29;15.80;43.60
55771;DHT22;41687;-33.234;-60.334;2022-09-09T13:17:00;16.00;45.10
55771;DHT22;41687;-33.234;-60.334;2022-09-09T13:19:37;16.30;46.70
55771;DHT22;41687;-33.234;-60.334;2022-09-09T13:22:21;16.40;45.70
55771;DHT22;41687;-33.234;-60.334;2022-09-09T13:25:03;16.30;43.50
55771;DHT22;41687;-33.234;-60.334;2022-09-09T13:27:34;16.20;43.90
55771;DHT22;41687;-33.234;-60.334;2022-09-09T13:30:38;16.30;45.10
55771;DHT22;41687;-33.234;-60.334;2022-09-09T13:38:20;16.70;43.20
55771;DHT22;41687;-33.234;-60.334;2022-09-09T13:40:59;16.50;42.00
55771;DHT22;41687;-33.234;-60.334;2022-09-09T13:43:50;16.40;41.70
55771;DHT22;41687;-33.234;-60.334;2022-09-09T13:49:20;16.50;42.20
55771;DHT22;41687;-33.234;-60.334;2022-09-09T13:51:50;16.40;41.40
55771;DHT22;41687;-33.234;-60.334;2022-09-09T13:54:21;16.30;42.70
55771;DHT22;41687;-33.234;-60.334;2022-09-09T13:56:49;16.20;43.40
55771;DHT22;41687;-33.234;-60.334;2022-09-09T13:59:19;16.40;43.80
55771;DHT22;41687;-33.234;-60.334;2022-09-09T14:01:48;16.20;43.70
55771;DHT22;41687;-33.234;-60.334;2022-09-09T14:04:20;16.10;43.10
55771;DHT22;41687;-33.234;-60.334;2022-09-09T14:06:49;16.20;43.00
55771;DHT22;41687;-33.234;-60.334;2022-09-09T14:09:18;16.40;43.50
55771;DHT22;41687;-33.234;-60.334;2022-09-09T14:11:46;16.20;42.40
55771;DHT22;41687;-33.234;-60.334;2022-09-09T14:14:15;16.10;43.10
55771;DHT22;41687;-33.234;-60.334;2022-09-09T14:16:42;16.00;43.20
55771;DHT22;41687;-33.234;-60.334;2022-09-09T14:19:10;16.00;43.30
55771;DHT22;41687;-33.234;-60.334;2022-09-09T14:21:38;16.00;42.50
55771;DHT22;41687;-33.234;-60.334;2022-09-09T14:24:06;15.80;42.70
55771;DHT22;41687;-33.234;-60.334;2022-09-09T14:26:34;15.70;43.30
55771;DHT22;41687;-33.234;-60.334;2022-09-09T14:29:01;15.60;42.90
55771;DHT22;41687;-33.234;-60.334;2022-09-09T14:31:29;15.80;43.10
55771;DHT22;41687;-33.234;-60.334;2022-09-09T14:33:58;15.70;42.90
55771;DHT22;41687;-33.234;-60.334;2022-09-09T14:36:25;15.70;42.90
55771;DHT22;41687;-33.234;-60.334;2022-09-09T14:38:53;15.60;41.90
55771;DHT22;41687;-33.234;-60.334;2022-09-09T14:41:21;15.50;40.50
55771;DHT22;41687;-33.234;-60.334;2022-09-09T14:43:50;15.50;42.20
55771;DHT22;41687;-33.234;-60.334;2022-09-09T14:46:19;15.50;41.70
55771;DHT22;41687;-33.234;-60.334;2022-09-09T14:48:48;15.60;42.30
55771;DHT22;41687;-33.234;-60.334;2022-09-09T14:51:18;15.60;42.20
55771;DHT22;41687;-33.234;-60.334;2022-09-09T14:53:57;15.60;41.70
55771;DHT22;41687;-33.234;-60.334;2022-09-09T14:56:30;15.60;41.60
55771;DHT22;41687;-33.234;-60.334;2022-09-09T14:59:00;15.50;41.00
55771;DHT22;41687;-33.234;-60.334;2022-09-09T15:01:29;15.50;42.50
55771;DHT22;41687;-33.234;-60.334;2022-09-09T15:03:59;15.60;42.90
55771;DHT22;41687;-33.234;-60.334;2022-09-09T15:06:30;15.60;42.70
55771;DHT22;41687;-33.234;-60.334;2022-09-09T15:09:00;15.60;43.00
55771;DHT22;41687;-33.234;-60.334;2022-09-09T15:11:31;15.60;41.90
55771;DHT22;41687;-33.234;-60.334;2022-09-09T15:14:01;15.70;41.30
55771;DHT22;41687;-33.234;-60.334;2022-09-09T15:16:29;15.80;42.00
55771;DHT22;41687;-33.234;-60.334;2022-09-09T15:19:00;16.00;41.50
55771;DHT22;41687;-33.234;-60.334;2022-09-09T15:21:30;15.90;40.80
55771;DHT22;41687;-33.234;-60.334;2022-09-09T15:23:59;15.70;41.00
55771;DHT22;41687;-33.234;-60.334;2022-09-09T15:26:27;15.60;41.90
55771;DHT22;41687;-33.234;-60.334;2022-09-09T15:28:57;15.70;42.60
55771;DHT22;41687;-33.234;-60.334;2022-09-09T15:31:28;15.80;41.50
55771;DHT22;41687;-33.234;-60.334;2022-09-09T15:34:00;15.80;42.80
55771;DHT22;41687;-33.234;-60.334;2022-09-09T15:36:33;15.80;41.80
55771;DHT22;41687;-33.234;-60.334;2022-09-09T15:39:04;15.70;41.20
55771;DHT22;41687;-33.234;-60.334;2022-09-09T15:41:32;15.70;41.40
55771;DHT22;41687;-33.234;-60.334;2022-09-09T15:44:00;15.60;42.00
55771;DHT22;41687;-33.234;-60.334;2022-09-09T15:46:31;15.40;41.20
55771;DHT22;41687;-33.234;-60.334;2022-09-09T15:51:45;15.10;41.30
55771;DHT22;41687;-33.234;-60.334;2022-09-09T15:54:18;15.20;41.70
55771;DHT22;41687;-33.234;-60.334;2022-09-09T15:56:54;15.40;41.70
55771;DHT22;41687;-33.234;-60.334;2022-09-09T15:59:28;15.40;41.30
55771;DHT22;41687;-33.234;-60.334;2022-09-09T16:01:57;15.40;41.70
55771;DHT22;41687;-33.234;-60.334;2022-09-09T16:04:28;15.60;41.70
55771;DHT22;41687;-33.234;-60.334;2022-09-09T16:07:02;15.50;41.80
55771;DHT22;41687;-33.234;-60.334;2022-09-09T16:09:31;15.60;41.60
55771;DHT22;41687;-33.234;-60.334;2022-09-09T16:12:00;15.60;41.40
55771;DHT22;41687;-33.234;-60.334;2022-09-09T16:14:29;15.60;41.70
55771;DHT22;41687;-33.234;-60.334;2022-09-09T16:17:01;15.70;41.40
55771;DHT22;41687;-33.234;-60.334;2022-09-09T16:19:29;15.60;41.00
55771;DHT22;41687;-33.234;-60.334;2022-09-09T16:21:57;15.40;41.10
55771;DHT22;41687;-33.234;-60.334;2022-09-09T16:24:25;15.40;41.80
55771;DHT22;41687;-33.234;-60.334;2022-09-09T16:26:54;15.50;42.60
55771;DHT22;41687;-33.234;-60.334;2022-09-09T16:29:22;15.60;42.30
55771;DHT22;41687;-33.234;-60.334;2022-09-09T16:31:51;15.60;40.90
55771;DHT22;41687;-33.234;-60.334;2022-09-09T16:34:19;15.60;41.20
55771;DHT22;41687;-33.234;-60.334;2022-09-09T16:36:48;15.70;41.30
55771;DHT22;41687;-33.234;-60.334;2022-09-09T16:39:18;15.60;41.70
55771;DHT22;41687;-33.234;-60.334;2022-09-09T16:41:48;15.60;39.90
55771;DHT22;41687;-33.234;-60.334;2022-09-09T16:44:17;15.40;41.50
55771;DHT22;41687;-33.234;-60.334;2022-09-09T16:46:48;15.50;41.60
55771;DHT22;41687;-33.234;-60.334;2022-09-09T16:49:20;15.70;41.90
55771;DHT22;41687;-33.234;-60.334;2022-09-09T16:51:49;15.70;41.50
55771;DHT22;41687;-33.234;-60.334;2022-09-09T16:54:20;15.50;41.00
55771;DHT22;41687;-33.234;-60.334;2022-09-09T16:56:50;15.60;41.70
55771;DHT22;41687;-33.234;-60.334;2022-09-09T16:59:19;15.50;41.50
55771;DHT22;41687;-33.234;-60.334;2022-09-09T17:01:50;15.60;41.90
55771;DHT22;41687;-33.234;-60.334;2022-09-09T17:04:25;15.70;41.70
55771;DHT22;41687;-33.234;-60.334;2022-09-09T17:06:55;15.60;41.00
55771;DHT22;41687;-33.234;-60.334;2022-09-09T17:09:25;15.20;41.50
55771;DHT22;41687;-33.234;-60.334;2022-09-09T17:11:59;15.20;41.70
55771;DHT22;41687;-33.234;-60.334;2022-09-09T17:14:26;15.40;42.30
55771;DHT22;41687;-33.234;-60.334;2022-09-09T17:16:54;15.30;42.00
55771;DHT22;41687;-33.234;-60.334;2022-09-09T17:19:22;15.30;41.40
55771;DHT22;41687;-33.234;-60.334;2022-09-09T17:21:50;15.30;41.60
55771;DHT22;41687;-33.234;-60.334;2022-09-09T17:24:18;15.20;41.60
55771;DHT22;41687;-33.234;-60.334;2022-09-09T17:26:46;15.30;41.30
55771;DHT22;41687;-33.234;-60.334;2022-09-09T17:29:14;15.30;41.60
55771;DHT22;41687;-33.234;-60.334;2022-09-09T17:31:42;15.50;41.40
55771;DHT22;41687;-33.234;-60.334;2022-09-09T17:34:10;15.60;41.10
55771;DHT22;41687;-33.234;-60.334;2022-09-09T17:36:38;15.50;40.90
55771;DHT22;41687;-33.234;-60.334;2022-09-09T17:39:06;15.60;41.10